sensor_id;sensor_type;location;lat;lon;timestamp;temperature;humidity
18712;DHT22;9485;49.386;8.674;2024-03-06T00:01:36;10.40;94.30
18712;DHT22;9485;49.386;8.674;2024-03-06T00:06:58;10.40;94.50
18712;DHT22;9485;49.386;8.674;2024-03-06T00:12:19;10.50;94.60
18712;DHT22;9485;49.386;8.674;2024-03-06T00:17:40;10.60;94.80
18712;DHT22;9485;49.386;8.674;2024-03-06T00:23:03;10.60;95.10
18712;DHT22;9485;49.386;8.674;2024-03-06T00:28:24;10.70;94.70
18712;DHT22;9485;49.386;8.674;2024-03-06T00:33:45;10.70;94.60
18712;DHT22;9485;49.386;8.674;2024-03-06T00:39:07;10.70;94.30
18712;DHT22;9485;49.386;8.674;2024-03-06T00:44:28;10.70;94.00
18712;DHT22;9485;49.386;8.674;2024-03-06T00:49:49;10.70;93.90
18712;DHT22;9485;49.386;8.674;2024-03-06T00:55:11;10.60;93.90
18712;DHT22;9485;49.386;8.674;2024-03-06T01:00:31;10.50;93.80
18712;DHT22;9485;49.386;8.674;2024-03-06T01:05:52;10.50;93.90
18712;DHT22;9485;49.386;8.674;2024-03-06T01:11:15;10.40;93.80
18712;DHT22;9485;49.386;8.674;2024-03-06T01:16:36;10.40;93.70
18712;DHT22;9485;49.386;8.674;2024-03-06T01:21:56;10.40;93.70
18712;DHT22;9485;49.386;8.674;2024-03-06T01:27:18;10.30;93.60
18712;DHT22;9485;49.386;8.674;2024-03-06T01:32:39;10.30;93.40
18712;DHT22;9485;49.386;8.674;2024-03-06T01:38:00;10.20;93.40
18712;DHT22;9485;49.386;8.674;2024-03-06T01:43:23;10.10;93.20
18712;DHT22;9485;49.386;8.674;2024-03-06T01:48:44;10.00;93.00
18712;DHT22;9485;49.386;8.674;2024-03-06T01:54:06;9.90;93.00
18712;DHT22;9485;49.386;8.674;2024-03-06T01:59:30;9.80;92.90
18712;DHT22;9485;49.386;8.674;2024-03-06T02:04:52;9.70;92.90
18712;DHT22;9485;49.386;8.674;2024-03-06T02:10:13;9.70;93.10
18712;DHT22;9485;49.386;8.674;2024-03-06T02:15:35;9.60;93.20
18712;DHT22;9485;49.386;8.674;2024-03-06T02:20:58;9.60;93.30
18712;DHT22;9485;49.386;8.674;2024-03-06T02:26:18;9.60;93.50
18712;DHT22;9485;49.386;8.674;2024-03-06T02:31:39;9.60;93.50
18712;DHT22;9485;49.386;8.674;2024-03-06T02:37:01;9.50;93.50
18712;DHT22;9485;49.386;8.674;2024-03-06T02:42:23;9.50;93.50
18712;DHT22;9485;49.386;8.674;2024-03-06T02:47:44;9.50;93.60
18712;DHT22;9485;49.386;8.674;2024-03-06T02:53:07;9.50;93.70
18712;DHT22;9485;49.386;8.674;2024-03-06T02:58:27;9.50;93.70
18712;DHT22;9485;49.386;8.674;2024-03-06T03:03:50;9.50;93.70
18712;DHT22;9485;49.386;8.674;2024-03-06T03:09:13;9.50;93.60
18712;DHT22;9485;49.386;8.674;2024-03-06T03:14:34;9.40;93.50
18712;DHT22;9485;49.386;8.674;2024-03-06T03:19:55;9.40;93.50
18712;DHT22;9485;49.386;8.674;2024-03-06T03:25:17;9.30;93.60
18712;DHT22;9485;49.386;8.674;2024-03-06T03:30:37;9.30;93.50
18712;DHT22;9485;49.386;8.674;2024-03-06T03:35:58;9.30;93.50
18712;DHT22;9485;49.386;8.674;2024-03-06T03:41:20;9.30;93.50
18712;DHT22;9485;49.386;8.674;2024-03-06T03:46:41;9.30;93.60
18712;DHT22;9485;49.386;8.674;2024-03-06T03:52:02;9.20;93.60
18712;DHT22;9485;49.386;8.674;2024-03-06T03:57:25;9.20;93.70
18712;DHT22;9485;49.386;8.674;2024-03-06T04:02:45;9.20;93.90
18712;DHT22;9485;49.386;8.674;2024-03-06T04:08:06;9.20;93.90
18712;DHT22;9485;49.386;8.674;2024-03-06T04:13:28;9.30;94.00
18712;DHT22;9485;49.386;8.674;2024-03-06T04:18:49;9.30;94.10
18712;DHT22;9485;49.386;8.674;2024-03-06T04:24:09;9.30;94.10
18712;DHT22;9485;49.386;8.674;2024-03-06T04:29:31;9.30;94.20
18712;DHT22;9485;49.386;8.674;2024-03-06T04:34:52;9.40;94.30
18712;DHT22;9485;49.386;8.674;2024-03-06T04:40:13;9.40;94.30
18712;DHT22;9485;49.386;8.674;2024-03-06T04:45:38;9.40;94.30
18712;DHT22;9485;49.386;8.674;2024-03-06T04:50:59;9.40;94.30
18712;DHT22;9485;49.386;8.674;2024-03-06T04:56:19;9.50;94.40
18712;DHT22;9485;49.386;8.674;2024-03-06T05:01:43;9.50;94.40
18712;DHT22;9485;49.386;8.674;2024-03-06T05:07:04;9.50;94.30
18712;DHT22;9485;49.386;8.674;2024-03-06T05:12:25;9.50;94.30
18712;DHT22;9485;49.386;8.674;2024-03-06T05:17:47;9.50;94.30
18712;DHT22;9485;49.386;8.674;2024-03-06T05:23:07;9.50;94.20
18712;DHT22;9485;49.386;8.674;2024-03-06T05:28:28;9.60;94.30
18712;DHT22;9485;49.386;8.674;2024-03-06T05:33:50;9.50;94.20
18712;DHT22;9485;49.386;8.674;2024-03-06T05:39:11;9.50;94.20
18712;DHT22;9485;49.386;8.674;2024-03-06T05:44:33;9.60;94.30
18712;DHT22;9485;49.386;8.674;2024-03-06T05:49:55;9.60;94.30
18712;DHT22;9485;49.386;8.674;2024-03-06T05:55:15;9.60;94.30
18712;DHT22;9485;49.386;8.674;2024-03-06T06:00:36;9.60;94.30
18712;DHT22;9485;49.386;8.674;2024-03-06T06:05:58;9.60;94.40
18712;DHT22;9485;49.386;8.674;2024-03-06T06:11:19;9.60;94.40
18712;DHT22;9485;49.386;8.674;2024-03-06T06:16:41;9.60;94.50
18712;DHT22;9485;49.386;8.674;2024-03-06T06:22:03;9.70;95.00
18712;DHT22;9485;49.386;8.674;2024-03-06T06:27:24;9.70;94.90
18712;DHT22;9485;49.386;8.674;2024-03-06T06:32:44;9.80;95.10
18712;DHT22;9485;49.386;8.674;2024-03-06T06:38:06;9.90;95.20
18712;DHT22;9485;49.386;8.674;2024-03-06T06:43:27;10.00;95.20
18712;DHT22;9485;49.386;8.674;2024-03-06T06:48:48;10.00;95.30
18712;DHT22;9485;49.386;8.674;2024-03-06T06:54:10;10.10;95.40
18712;DHT22;9485;49.386;8.674;2024-03-06T06:59:31;10.20;95.50
18712;DHT22;9485;49.386;8.674;2024-03-06T07:04:52;10.30;95.70
18712;DHT22;9485;49.386;8.674;2024-03-06T07:10:14;10.40;95.70
18712;DHT22;9485;49.386;8.674;2024-03-06T07:15:35;10.50;95.60
18712;DHT22;9485;49.386;8.674;2024-03-06T07:20:55;10.60;95.60
18712;DHT22;9485;49.386;8.674;2024-03-06T07:26:18;10.70;95.60
18712;DHT22;9485;49.386;8.674;2024-03-06T07:31:39;10.80;95.60
18712;DHT22;9485;49.386;8.674;2024-03-06T07:37:00;10.90;95.80
18712;DHT22;9485;49.386;8.674;2024-03-06T07:42:22;11.00;96.00
18712;DHT22;9485;49.386;8.674;2024-03-06T07:47:42;11.10;96.00
18712;DHT22;9485;49.386;8.674;2024-03-06T07:53:04;11.20;96.10
18712;DHT22;9485;49.386;8.674;2024-03-06T07:58:26;11.40;96.10
18712;DHT22;9485;49.386;8.674;2024-03-06T08:03:47;11.50;96.10
18712;DHT22;9485;49.386;8.674;2024-03-06T08:09:08;11.60;96.20
18712;DHT22;9485;49.386;8.674;2024-03-06T08:14:30;11.80;96.50
18712;DHT22;9485;49.386;8.674;2024-03-06T08:19:51;12.00;96.60
18712;DHT22;9485;49.386;8.674;2024-03-06T08:25:12;12.10;96.40
18712;DHT22;9485;49.386;8.674;2024-03-06T08:30:34;12.30;96.30
18712;DHT22;9485;49.386;8.674;2024-03-06T08:35:55;12.40;96.00
18712;DHT22;9485;49.386;8.674;2024-03-06T08:41:17;12.50;95.80
18712;DHT22;9485;49.386;8.674;2024-03-06T08:46:40;12.50;95.80
18712;DHT22;9485;49.386;8.674;2024-03-06T08:52:01;12.60;95.70
18712;DHT22;9485;49.386;8.674;2024-03-06T08:57:22;12.70;95.70
18712;DHT22;9485;49.386;8.674;2024-03-06T09:02:47;12.70;95.70
18712;DHT22;9485;49.386;8.674;2024-03-06T09:08:09;12.80;95.70
18712;DHT22;9485;49.386;8.674;2024-03-06T09:13:31;12.90;96.00
18712;DHT22;9485;49.386;8.674;2024-03-06T09:18:53;13.00;95.50
18712;DHT22;9485;49.386;8.674;2024-03-06T09:24:13;13.10;95.30
18712;DHT22;9485;49.386;8.674;2024-03-06T09:29:34;13.20;95.40
18712;DHT22;9485;49.386;8.674;2024-03-06T09:34:56;13.20;95.70
18712;DHT22;9485;49.386;8.674;2024-03-06T09:40:22;13.30;95.60
18712;DHT22;9485;49.386;8.674;2024-03-06T09:45:47;13.50;96.00
18712;DHT22;9485;49.386;8.674;2024-03-06T09:51:10;13.80;96.70
18712;DHT22;9485;49.386;8.674;2024-03-06T09:56:31;14.10;96.80
18712;DHT22;9485;49.386;8.674;2024-03-06T10:01:54;14.30;96.70
18712;DHT22;9485;49.386;8.674;2024-03-06T10:07:17;14.60;96.80
18712;DHT22;9485;49.386;8.674;2024-03-06T10:12:39;14.90;97.10
18712;DHT22;9485;49.386;8.674;2024-03-06T10:18:12;15.30;97.10
18712;DHT22;9485;49.386;8.674;2024-03-06T10:23:36;15.60;95.70
18712;DHT22;9485;49.386;8.674;2024-03-06T10:28:57;15.90;95.60
18712;DHT22;9485;49.386;8.674;2024-03-06T10:34:19;16.00;94.90
18712;DHT22;9485;49.386;8.674;2024-03-06T10:39:42;16.00;94.50
18712;DHT22;9485;49.386;8.674;2024-03-06T10:45:05;16.00;94.30
18712;DHT22;9485;49.386;8.674;2024-03-06T10:50:28;16.10;94.40
18712;DHT22;9485;49.386;8.674;2024-03-06T10:55:51;16.10;93.90
18712;DHT22;9485;49.386;8.674;2024-03-06T11:01:11;16.10;93.50
18712;DHT22;9485;49.386;8.674;2024-03-06T11:06:32;16.10;93.40
18712;DHT22;9485;49.386;8.674;2024-03-06T11:11:55;16.00;93.40
18712;DHT22;9485;49.386;8.674;2024-03-06T11:17:15;16.00;93.30
18712;DHT22;9485;49.386;8.674;2024-03-06T11:23:03;16.00;94.20
18712;DHT22;9485;49.386;8.674;2024-03-06T11:28:33;16.10;93.70
18712;DHT22;9485;49.386;8.674;2024-03-06T11:33:55;16.30;95.00
18712;DHT22;9485;49.386;8.674;2024-03-06T11:39:16;16.60;95.30
18712;DHT22;9485;49.386;8.674;2024-03-06T11:44:52;16.80;95.30
18712;DHT22;9485;49.386;8.674;2024-03-06T11:50:15;17.10;94.30
18712;DHT22;9485;49.386;8.674;2024-03-06T11:55:37;17.30;95.20
18712;DHT22;9485;49.386;8.674;2024-03-06T12:00:59;17.50;95.00
18712;DHT22;9485;49.386;8.674;2024-03-06T12:06:21;17.70;94.10
18712;DHT22;9485;49.386;8.674;2024-03-06T12:11:42;17.80;93.90
18712;DHT22;9485;49.386;8.674;2024-03-06T12:17:05;17.80;93.20
18712;DHT22;9485;49.386;8.674;2024-03-06T12:22:27;17.80;91.50
18712;DHT22;9485;49.386;8.674;2024-03-06T12:27:47;17.60;91.40
18712;DHT22;9485;49.386;8.674;2024-03-06T12:33:10;17.40;91.00
18712;DHT22;9485;49.386;8.674;2024-03-06T12:38:36;17.10;90.30
18712;DHT22;9485;49.386;8.674;2024-03-06T12:43:57;16.90;90.40
18712;DHT22;9485;49.386;8.674;2024-03-06T12:49:19;16.60;90.50
18712;DHT22;9485;49.386;8.674;2024-03-06T12:54:40;16.40;90.80
18712;DHT22;9485;49.386;8.674;2024-03-06T13:00:01;16.20;91.20
18712;DHT22;9485;49.386;8.674;2024-03-06T13:05:23;16.10;91.20
18712;DHT22;9485;49.386;8.674;2024-03-06T13:10:44;15.90;91.30
18712;DHT22;9485;49.386;8.674;2024-03-06T13:16:05;15.80;91.70
18712;DHT22;9485;49.386;8.674;2024-03-06T13:21:27;15.70;91.80
18712;DHT22;9485;49.386;8.674;2024-03-06T13:26:48;15.60;91.80
18712;DHT22;9485;49.386;8.674;2024-03-06T13:32:09;15.50;92.10
18712;DHT22;9485;49.386;8.674;2024-03-06T13:37:31;15.50;92.30
18712;DHT22;9485;49.386;8.674;2024-03-06T13:42:53;15.40;92.20
18712;DHT22;9485;49.386;8.674;2024-03-06T13:48:14;15.40;92.40
18712;DHT22;9485;49.386;8.674;2024-03-06T13:53:37;15.40;92.70
18712;DHT22;9485;49.386;8.674;2024-03-06T13:58:57;15.40;92.60
18712;DHT22;9485;49.386;8.674;2024-03-06T14:04:18;15.40;92.90
18712;DHT22;9485;49.386;8.674;2024-03-06T14:09:41;15.40;92.80
18712;DHT22;9485;49.386;8.674;2024-03-06T14:15:02;15.40;92.90
18712;DHT22;9485;49.386;8.674;2024-03-06T14:20:23;15.40;93.00
18712;DHT22;9485;49.386;8.674;2024-03-06T14:25:45;15.40;92.70
18712;DHT22;9485;49.386;8.674;2024-03-06T14:31:06;15.40;92.40
18712;DHT22;9485;49.386;8.674;2024-03-06T14:36:27;15.30;92.60
18712;DHT22;9485;49.386;8.674;2024-03-06T14:41:48;15.20;92.60
18712;DHT22;9485;49.386;8.674;2024-03-06T14:47:09;15.10;92.50
18712;DHT22;9485;49.386;8.674;2024-03-06T14:52:30;15.10;92.70
18712;DHT22;9485;49.386;8.674;2024-03-06T14:57:53;15.00;92.80
18712;DHT22;9485;49.386;8.674;2024-03-06T15:03:13;14.90;92.70
18712;DHT22;9485;49.386;8.674;2024-03-06T15:08:34;14.80;92.90
18712;DHT22;9485;49.386;8.674;2024-03-06T15:13:56;14.70;93.20
18712;DHT22;9485;49.386;8.674;2024-03-06T15:19:17;14.60;93.50
18712;DHT22;9485;49.386;8.674;2024-03-06T15:24:38;14.60;94.00
18712;DHT22;9485;49.386;8.674;2024-03-06T15:30:00;14.60;94.30
18712;DHT22;9485;49.386;8.674;2024-03-06T15:35:21;14.70;94.40
18712;DHT22;9485;49.386;8.674;2024-03-06T15:40:42;14.70;94.70
18712;DHT22;9485;49.386;8.674;2024-03-06T15:46:04;14.70;94.70
18712;DHT22;9485;49.386;8.674;2024-03-06T15:51:25;14.80;94.70
18712;DHT22;9485;49.386;8.674;2024-03-06T15:56:46;14.80;94.60
18712;DHT22;9485;49.386;8.674;2024-03-06T16:02:08;14.70;94.50
18712;DHT22;9485;49.386;8.674;2024-03-06T16:07:29;14.70;94.30
18712;DHT22;9485;49.386;8.674;2024-03-06T16:12:50;14.70;94.20
18712;DHT22;9485;49.386;8.674;2024-03-06T16:18:12;14.60;94.00
18712;DHT22;9485;49.386;8.674;2024-03-06T16:23:33;14.50;94.00
18712;DHT22;9485;49.386;8.674;2024-03-06T16:28:53;14.50;94.10
18712;DHT22;9485;49.386;8.674;2024-03-06T16:34:16;14.40;94.10
18712;DHT22;9485;49.386;8.674;2024-03-06T16:39:40;14.30;94.00
18712;DHT22;9485;49.386;8.674;2024-03-06T16:45:05;14.30;94.00
18712;DHT22;9485;49.386;8.674;2024-03-06T16:50:30;14.30;94.00
18712;DHT22;9485;49.386;8.674;2024-03-06T16:55:50;14.20;93.80
18712;DHT22;9485;49.386;8.674;2024-03-06T17:01:12;14.10;93.90
18712;DHT22;9485;49.386;8.674;2024-03-06T17:06:34;14.00;94.00
18712;DHT22;9485;49.386;8.674;2024-03-06T17:11:54;14.00;94.00
18712;DHT22;9485;49.386;8.674;2024-03-06T17:17:15;14.00;94.20
18712;DHT22;9485;49.386;8.674;2024-03-06T17:22:37;13.90;94.40
18712;DHT22;9485;49.386;8.674;2024-03-06T17:27:57;13.90;94.10
18712;DHT22;9485;49.386;8.674;2024-03-06T17:33:18;13.80;94.30
18712;DHT22;9485;49.386;8.674;2024-03-06T17:38:40;13.80;94.30
18712;DHT22;9485;49.386;8.674;2024-03-06T17:44:02;13.80;94.20
18712;DHT22;9485;49.386;8.674;2024-03-06T17:49:23;13.70;94.20
18712;DHT22;9485;49.386;8.674;2024-03-06T17:54:45;13.60;94.20
18712;DHT22;9485;49.386;8.674;2024-03-06T18:00:08;13.60;94.20
18712;DHT22;9485;49.386;8.674;2024-03-06T18:05:31;13.50;94.10
18712;DHT22;9485;49.386;8.674;2024-03-06T18:10:52;13.50;94.20
18712;DHT22;9485;49.386;8.674;2024-03-06T18:16:13;13.40;94.00
18712;DHT22;9485;49.386;8.674;2024-03-06T18:21:34;13.40;94.10
18712;DHT22;9485;49.386;8.674;2024-03-06T18:26:56;13.30;94.40
18712;DHT22;9485;49.386;8.674;2024-03-06T18:32:17;13.20;93.80
18712;DHT22;9485;49.386;8.674;2024-03-06T18:37:39;13.10;93.80
18712;DHT22;9485;49.386;8.674;2024-03-06T18:43:02;13.10;93.90
18712;DHT22;9485;49.386;8.674;2024-03-06T18:48:23;13.00;93.80
18712;DHT22;9485;49.386;8.674;2024-03-06T18:53:44;12.90;94.00
18712;DHT22;9485;49.386;8.674;2024-03-06T18:59:05;12.80;94.20
18712;DHT22;9485;49.386;8.674;2024-03-06T19:04:26;12.80;94.40
18712;DHT22;9485;49.386;8.674;2024-03-06T19:09:47;12.80;94.50
18712;DHT22;9485;49.386;8.674;2024-03-06T19:15:10;12.80;94.40
18712;DHT22;9485;49.386;8.674;2024-03-06T19:20:30;12.70;94.30
18712;DHT22;9485;49.386;8.674;2024-03-06T19:25:50;12.70;94.60
18712;DHT22;9485;49.386;8.674;2024-03-06T19:31:12;12.70;94.80
18712;DHT22;9485;49.386;8.674;2024-03-06T19:36:33;12.70;94.80
18712;DHT22;9485;49.386;8.674;2024-03-06T19:41:53;12.80;94.90
18712;DHT22;9485;49.386;8.674;2024-03-06T19:47:16;12.80;94.90
18712;DHT22;9485;49.386;8.674;2024-03-06T19:52:37;12.80;94.70
18712;DHT22;9485;49.386;8.674;2024-03-06T19:57:59;12.80;94.70
18712;DHT22;9485;49.386;8.674;2024-03-06T20:03:20;12.70;94.60
18712;DHT22;9485;49.386;8.674;2024-03-06T20:08:41;12.70;94.50
18712;DHT22;9485;49.386;8.674;2024-03-06T20:14:02;12.70;94.40
18712;DHT22;9485;49.386;8.674;2024-03-06T20:19:23;12.60;94.30
18712;DHT22;9485;49.386;8.674;2024-03-06T20:24:44;12.60;94.10
18712;DHT22;9485;49.386;8.674;2024-03-06T20:30:06;12.50;94.00
18712;DHT22;9485;49.386;8.674;2024-03-06T20:35:29;12.50;93.80
18712;DHT22;9485;49.386;8.674;2024-03-06T20:40:50;12.30;93.70
18712;DHT22;9485;49.386;8.674;2024-03-06T20:46:10;12.20;93.70
18712;DHT22;9485;49.386;8.674;2024-03-06T20:51:32;12.10;93.60
18712;DHT22;9485;49.386;8.674;2024-03-06T20:56:53;12.10;93.50
18712;DHT22;9485;49.386;8.674;2024-03-06T21:02:14;12.00;93.60
18712;DHT22;9485;49.386;8.674;2024-03-06T21:07:36;11.80;93.80
18712;DHT22;9485;49.386;8.674;2024-03-06T21:12:57;11.80;93.50
18712;DHT22;9485;49.386;8.674;2024-03-06T21:18:17;11.70;93.40
18712;DHT22;9485;49.386;8.674;2024-03-06T21:23:39;11.60;93.40
18712;DHT22;9485;49.386;8.674;2024-03-06T21:28:59;11.50;93.60
18712;DHT22;9485;49.386;8.674;2024-03-06T21:34:20;11.40;93.70
18712;DHT22;9485;49.386;8.674;2024-03-06T21:39:43;11.30;93.50
18712;DHT22;9485;49.386;8.674;2024-03-06T21:45:04;11.20;93.40
18712;DHT22;9485;49.386;8.674;2024-03-06T21:50:25;11.20;93.40
18712;DHT22;9485;49.386;8.674;2024-03-06T21:55:47;11.10;93.40
18712;DHT22;9485;49.386;8.674;2024-03-06T22:01:08;11.00;93.60
18712;DHT22;9485;49.386;8.674;2024-03-06T22:06:30;10.90;93.60
18712;DHT22;9485;49.386;8.674;2024-03-06T22:11:54;10.80;93.50
18712;DHT22;9485;49.386;8.674;2024-03-06T22:17:15;10.70;93.30
18712;DHT22;9485;49.386;8.674;2024-03-06T22:22:36;10.70;93.20
18712;DHT22;9485;49.386;8.674;2024-03-06T22:27:58;10.60;93.10
18712;DHT22;9485;49.386;8.674;2024-03-06T22:33:18;10.40;92.90
18712;DHT22;9485;49.386;8.674;2024-03-06T22:38:39;10.30;92.90
18712;DHT22;9485;49.386;8.674;2024-03-06T22:44:01;10.20;93.00
18712;DHT22;9485;49.386;8.674;2024-03-06T22:49:24;10.10;93.30
18712;DHT22;9485;49.386;8.674;2024-03-06T22:54:45;10.00;94.00
18712;DHT22;9485;49.386;8.674;2024-03-06T23:00:09;10.10;94.60
18712;DHT22;9485;49.386;8.674;2024-03-06T23:05:47;10.20;95.00
18712;DHT22;9485;49.386;8.674;2024-03-06T23:11:09;10.30;95.20
18712;DHT22;9485;49.386;8.674;2024-03-06T23:16:31;10.40;95.20
18712;DHT22;9485;49.386;8.674;2024-03-06T23:21:51;10.40;95.00
18712;DHT22;9485;49.386;8.674;2024-03-06T23:27:12;10.50;95.00
18712;DHT22;9485;49.386;8.674;2024-03-06T23:32:36;10.50;94.70
18712;DHT22;9485;49.386;8.674;2024-03-06T23:37:57;10.50;94.50
18712;DHT22;9485;49.386;8.674;2024-03-06T23:43:17;10.50;94.40
18712;DHT22;9485;49.386;8.674;2024-03-06T23:48:39;10.50;94.40
18712;DHT22;9485;49.386;8.674;2024-03-06T23:54:00;10.50;94.60
18712;DHT22;9485;49.386;8.674;2024-03-06T23:59:21;10.50;94.60
